Race Coverage Navigation

TS # 38 / Sullivan, IN  2019

 


TS STATS
TS Distance 73.1 
Total Distance 2238.6 
Miles To Go 802.51 
TS Climbing 2218 
Total Climbing
TS  Elevation
TS  Net Elevation 3533 
Map Filename Open Map 
Directions Filename  
Latitude 39.1 
Longitude -87.43 
Google Map  TimeStation Map 


TS Arrival Data
Arr Ord  #/Name Arrival DT TS Dst Avg This TS Avg Overall
 1 377 - Christoph Strasser  06/17/2019 10:53 73.1  14.19  16.19 
 2 279 - Marko Baloh  06/18/2019 9:38 73.1  8.48  13.9 
 3 609 - Jakob Olsen  06/18/2019 13:16 73.1  13.75  13.57 
 4 617 - SOLO.kiwi (Craig Harper)  06/19/2019 2:55 73.1  14.1  12.53 
 5 367 - Daniela Genovesi  06/19/2019 4:34 73.1  13.71  12.41 
 6 329 - Peter Oyler  06/19/2019 7:42 73.1  7.63  12.23 
 7 622 - Thomas Odom-Team Kyle Pease Foundation  06/19/2019 9:05 73.1  11.73  12.11 
 8 416 - Leah Goldstein  06/19/2019 9:09 73.1  8.62  12.1 
 9 623 - Ultra Paka Racing Team (Daniel Polman)  06/19/2019 11:07 73.1  9.47  11.97 
 10 612 - Markus K. Brandl  06/19/2019 15:14 73.1  11.79  11.72 
 11 T411 - team alpha - tischlerei groemmer  06/19/2019 17:52 73.1  23.71  22.72 
 12 T800 - Backstedt Racing Project 14  06/19/2019 18:38 73.1  22.04  22.58 
 13 615 - Philipp Amhof  06/19/2019 18:45 73.1  9.02  11.51 
 14 611 - Marcelo Soares " MIXIRICA "  06/19/2019 19:27 73.1  17.07  11.47 
 15 603 - Alan Bradley  06/19/2019 19:40 73.1  14.29  11.46 
 16 559 - Team Martin RAAM 2019 (Martin Bergmeister)  06/19/2019 23:14 73.1  13.45  11.26 
 17 510 - John C. Tarlton  06/19/2019 23:57 73.1  13.33  11.22 
 18 T404 - Gentlemen of speed  06/20/2019 0:01 73.1  23.97  21.36 
 19 411 - Geoff Brunner  06/20/2019 0:59 73.1  11.45  11.17 
 20 T401 - Data Techniques powered by Networks Centre  06/20/2019 1:00 73.1  23.45  21.16 
 21 442 - Joe Barr  06/20/2019 1:44 73.1  9.58  11.13 
 22 T805 - Team Oceanside  06/20/2019 5:16 73.1  21.5  20.41 
 23 T807 - Team ZOE International  06/20/2019 6:14 73.1  21.61  20.23 
 24 T407 - Julian Becker   06/20/2019 6:34 73.1  21.09  20.12 
 25 T201 - EAT WELL  06/20/2019 6:45 73.1  20.79  20.04 
 26 568 - Alexandra Meixner  06/20/2019 7:05 73.1  7.6  10.81 
 27 529 - Isa Pulver  06/20/2019 7:07 73.1  10.01  10.81 
 28 T802 - Scorchers  06/20/2019 8:17 73.1  22.96  19.85 
 29 610 - Kabir Rachure  06/20/2019 9:22 73.1  12.35  10.71 
 30 T416 - Team Rotary Raams Polio  06/20/2019 9:50 73.1  22.73  19.57 
 31 604 - Chieko Ozawa  06/20/2019 10:07 73.1  10.66 
 32 T804 - Team FSHD Skyland Trail  06/20/2019 10:19 73.1  24.1  19.51 
 33 618 - GREGORY ROBINSON  06/20/2019 11:07 73.1  11.22  10.61 
 34 T408 - Radeln-fuer-Kinder (Cycling-for-Kids)  06/20/2019 11:11 73.1  22.73  19.32 
 35 T400 - Cantastic4  06/20/2019 12:59 73.1  23.33  19 
 36 T808 - Antonia's Friends 2019  06/20/2019 14:04 73.1  23.33  18.9 
 37 T406 - Operation Walk Midwest  06/20/2019 15:02 73.1  23.08  18.69 
 38 399 - Valerio Zamboni  06/20/2019 15:14 73.1  14.33  10.43 
 39 T418 - The Opportunists  06/20/2019 16:52 73.1  21.61  18.44 
 40 161 - Seana Hogan  06/20/2019 20:20 73.1  12.18  10.17 
 41 424 - Team i RON man Veterans supporting Veterans  06/20/2019 20:33 73.1  9.83  10.17 
 42 T410 - Soap-Aid  06/20/2019 21:10 73.1  18.99  17.79 
 43 T412 - Team Aspect  06/20/2019 22:10 73.1  25.95  17.65 
 44 T803 - Team EndoPark  06/21/2019 0:14 73.1  24.23  17.39 
 45 T414 - Brazil Nuts  06/21/2019 0:18 73.1  21.61  17.37 
 46 T202 - Integra Medical - BAA Racing  06/21/2019 1:20 73.1  17.54  17.18 
 47 T405 - High Rollers  06/21/2019 1:39 73.1  16.8  17.17 
 48 T415 - TEAM FIRE VELO 935  06/21/2019 2:57 73.1  16.74  17.02 
 49 T206 - Project Linear Acceleration  06/21/2019 5:25 73.1  15.55  16.67 
 50 T204 - Lucan CRC  06/21/2019 5:30 73.1  17.98  16.65 
 51 T413 - TEAM BRASIL - SKIPPER  06/21/2019 5:48 73.1  17.4  16.65 
 52 T402 - EA/WFP RAAM Team  06/21/2019 7:04 73.1  17.47  16.48 
 53 T806 - Team SuperMarrow  06/21/2019 8:41 73.1  15.78  16.33 
 54 T200 - AIR RELAX GoPro TEAM BRASIL  06/21/2019 10:52 73.1  10.49  16.01 
 55 T417 - Team4RAAM 2019 powered by TGW Living Logistics  06/21/2019 11:43 73.1  14.43  15.96 
 56 T403 - EKJ Denmark  06/21/2019 12:56 73.1  7.68  15.8 
 57 608 - Elin Starup  06/21/2019 13:23 73.1  10.47  9.43 
 58 T801 - Mind Over Matter  06/21/2019 14:04 73.1  8.05  15.7 
 59 T409 - Serpentine Golden Girls  06/21/2019 23:31 73.1  14.77  14.71 
 60 T203 - JPsDuo  06/22/2019 4:38 73.1  13.01  14.21 
 61 T207 - Team Life Time  06/22/2019 6:22 73.1  14.62  14.06 
 62 T210 - Bike Wine Team  06/22/2019 9:43 73.1  15.07  13.77